Thunder radar more information blitzortung!


Radar de pluja more information rain snow radar


Visita la nostra xarxa de llocs de meteo:

Template documentation
and downloads

And another site



No particular awareness of the weather is required.    There are no Weather-warnings

Pagina Historial Weather Underground text

Diari Resum Novembre 15, 2017 Unitats:  Mètric    Imperial   Tant
« Previous Dia
SegĂźent Dia »
Diari Setmana Mensual Anual Personalitzada
  Maxima: Minima: Media:
Temperatura: 14.6 °C 1.5 °C 8.2 °C
Punt de rosada: 1.2 °C -7.4 °C -3.1 °C
Humitat: 59 % 32 % 45 %
Wind Speed: 7.4 km/h 0.0 km/h 2.2 km/h
RĂ fegues de vent: 7.4 km/h - -
Vent:- - SE
Pression baro: 1019.9 hPa 1016.8 hPa -
Precipitacions: 0.0 mm    
Historical Graphs
 
 
Dades de taula per Novembre 15, 2017
Temps Temperatura Punt de rosada Pression baro Vent Wind Speed RĂ fegues de vent Humitat Rainfall Rate (Hourly)
00:02 4.3 °C -6.9 °C 1019.9 hPa West 2.6 km/h 2.6 km/h 44 % 0.0 mm
00:05 2.3 °C -7.1 °C 1019.9 hPa WNW 1.6 km/h 3.2 km/h 50 % 0.0 mm
00:07 4.2 °C -7.0 °C 1019.9 hPa NW 2.3 km/h 2.3 km/h 44 % 0.0 mm
00:12 4.3 °C -6.9 °C 1019.9 hPa WNW 2.3 km/h 2.3 km/h 44 % 0.0 mm
00:15 2.2 °C -6.9 °C 1018.8 hPa Calm     51 % 0.0 mm
00:17 4.3 °C -6.6 °C 1019.9 hPa Calm     45 % 0.0 mm
00:22 4.2 °C -6.7 °C 1019.9 hPa Calm     45 % 0.0 mm
00:25 2.0 °C -7.1 °C 1019.9 hPa WSW 1.6 km/h 3.2 km/h 51 % 0.0 mm
00:27 4.2 °C -6.4 °C 1019.9 hPa Calm     46 % 0.0 mm
00:32 4.2 °C -6.4 °C 1019.9 hPa NW 1.9 km/h 1.9 km/h 46 % 0.0 mm
00:35 2.1 °C -7.0 °C 1019.9 hPa Calm   1.6 km/h 51 % 0.0 mm
00:37 4.1 °C -6.5 °C 1019.9 hPa Calm     46 % 0.0 mm
00:42 4.0 °C -6.6 °C 1019.9 hPa WSW 1.9 km/h 2.3 km/h 46 % 0.0 mm
00:45 2.0 °C -7.1 °C 1018.8 hPa WNW 1.6 km/h 3.2 km/h 51 % 0.0 mm
00:47 3.9 °C -6.7 °C 1019.9 hPa WSW 1.9 km/h   46 % 0.0 mm
00:52 3.9 °C -6.4 °C 1019.9 hPa WSW 1.9 km/h   47 % 0.0 mm
00:55 1.8 °C -7.3 °C 1019.9 hPa Calm   1.6 km/h 51 % 0.0 mm
01:05 1.7 °C -7.4 °C 1019.9 hPa Calm   4.8 km/h 51 % 0.0 mm
01:15 1.6 °C -7.2 °C 1018.8 hPa Calm   6.4 km/h 52 % 0.0 mm
01:25 1.5 °C -7.3 °C 1019.9 hPa Calm   3.2 km/h 52 % 0.0 mm
01:35 1.5 °C -7.3 °C 1019.9 hPa North 1.6 km/h 3.2 km/h 52 % 0.0 mm
01:45 1.7 °C -7.1 °C 1019.9 hPa North 1.6 km/h 4.8 km/h 52 % 0.0 mm
01:55 1.8 °C -7.0 °C 1019.9 hPa NNE 1.6 km/h 3.2 km/h 52 % 0.0 mm
02:05 2.2 °C -6.7 °C 1019.9 hPa North 3.2 km/h 4.8 km/h 52 % 0.0 mm
02:15 2.5 °C -6.4 °C 1019.9 hPa WNW 1.6 km/h 1.6 km/h 52 % 0.0 mm
02:25 3.1 °C -5.6 °C 1019.9 hPa Calm   1.6 km/h 53 % 0.0 mm
02:35 3.6 °C -5.3 °C 1019.9 hPa Calm   3.2 km/h 52 % 0.0 mm
02:45 3.6 °C -5.3 °C 1019.9 hPa West 1.6 km/h 3.2 km/h 52 % 0.0 mm
02:55 3.9 °C -5.1 °C 1019.9 hPa Calm   4.8 km/h 52 % 0.0 mm
03:05 4.7 °C -4.3 °C 1019.9 hPa SW 1.6 km/h 3.2 km/h 52 % 0.0 mm
03:15 5.5 °C -3.6 °C 1019.9 hPa SSW 1.6 km/h 4.8 km/h 52 % 0.0 mm
03:25 5.6 °C -3.8 °C 1019.9 hPa NE 1.6 km/h 3.2 km/h 51 % 0.0 mm
03:35 6.0 °C -3.4 °C 1019.9 hPa NE 1.6 km/h 4.8 km/h 51 % 0.0 mm
03:45 6.2 °C -3.2 °C 1019.9 hPa NE 1.6 km/h 6.4 km/h 51 % 0.0 mm
09:51 6.5 °C -2.9 °C 1019.9 hPa ENE 4.2 km/h 4.2 km/h 51 % 0.0 mm
09:52 6.5 °C -2.9 °C 1019.9 hPa ENE 5.0 km/h 5.0 km/h 51 % 0.0 mm
09:53 6.5 °C -2.9 °C 1019.9 hPa NE 7.4 km/h 7.4 km/h 51 % 0.0 mm
09:58 6.4 °C -3.0 °C 1019.9 hPa WNW 5.3 km/h 5.3 km/h 51 % 0.0 mm
10:03 6.7 °C -3.0 °C 1019.9 hPa NNE 6.1 km/h 6.1 km/h 50 % 0.0 mm
10:04 6.8 °C -2.9 °C 1019.9 hPa NNE 5.6 km/h 5.6 km/h 50 % 0.0 mm
10:09 7.0 °C -2.7 °C 1019.9 hPa NE 4.2 km/h 4.2 km/h 50 % 0.0 mm
10:14 6.9 °C -2.8 °C 1019.9 hPa NNE 3.7 km/h 3.7 km/h 50 % 0.0 mm
10:19 7.1 °C -2.6 °C 1019.9 hPa NNE 3.9 km/h 3.9 km/h 50 % 0.0 mm
10:24 7.4 °C -2.3 °C 1019.9 hPa NNE 3.7 km/h 3.9 km/h 50 % 0.0 mm
10:29 7.6 °C -2.2 °C 1019.9 hPa NE 5.6 km/h 5.6 km/h 50 % 0.0 mm
10:34 7.9 °C -1.9 °C 1019.9 hPa ENE 3.5 km/h   50 % 0.0 mm
10:39 8.1 °C -1.7 °C 1019.9 hPa NE 3.7 km/h 3.7 km/h 50 % 0.0 mm
10:44 8.5 °C -1.3 °C 1019.9 hPa NNE 3.9 km/h 3.9 km/h 50 % 0.0 mm
10:47 8.4 °C -1.4 °C 1019.9 hPa WSW 3.9 km/h 3.9 km/h 50 % 0.0 mm
10:52 8.5 °C -1.6 °C 1019.9 hPa NNE 5.6 km/h 5.6 km/h 49 % 0.0 mm
10:57 8.4 °C -1.7 °C 1019.9 hPa ENE 5.6 km/h 5.6 km/h 49 % 0.0 mm
11:02 8.3 °C -1.8 °C 1019.9 hPa NW 3.9 km/h 3.9 km/h 49 % 0.0 mm
11:07 8.7 °C -1.4 °C 1019.9 hPa NNE 5.6 km/h 5.6 km/h 49 % 0.0 mm
11:12 8.6 °C -1.8 °C 1019.9 hPa ENE 7.4 km/h 7.4 km/h 48 % 0.0 mm
11:17 8.8 °C -1.3 °C 1019.9 hPa East 5.6 km/h 5.6 km/h 49 % 0.0 mm
11:22 9.2 °C -1.0 °C 1018.8 hPa North 3.7 km/h   49 % 0.0 mm
11:27 9.3 °C -1.2 °C 1018.8 hPa NE 7.4 km/h 7.4 km/h 48 % 0.0 mm
11:32 9.5 °C -1.0 °C 1018.8 hPa NE 5.8 km/h 5.8 km/h 48 % 0.0 mm
11:35 12.8 °C -2.7 °C 1016.8 hPa South 1.6 km/h 3.2 km/h 34 % 0.0 mm
11:37 9.6 °C -0.9 °C 1019.9 hPa ENE 3.9 km/h 3.9 km/h 48 % 0.0 mm
11:42 9.7 °C -0.8 °C 1019.9 hPa ENE 5.6 km/h 5.6 km/h 48 % 0.0 mm
11:45 12.5 °C -3.3 °C 1017.8 hPa Calm   3.2 km/h 33 % 0.0 mm
11:47 9.8 °C -0.7 °C 1019.9 hPa East 7.4 km/h 7.4 km/h 48 % 0.0 mm
11:52 9.9 °C -0.9 °C 1018.8 hPa ESE 5.6 km/h 5.6 km/h 47 % 0.0 mm
11:55 12.1 °C -3.3 °C 1017.8 hPa Calm   1.6 km/h 34 % 0.0 mm
11:57 10.1 °C -0.7 °C 1018.8 hPa NE 7.4 km/h 7.4 km/h 47 % 0.0 mm
12:02 10.2 °C -0.6 °C 1018.8 hPa NNE 5.6 km/h 5.6 km/h 47 % 0.0 mm
12:05 11.7 °C -3.7 °C 1017.8 hPa WSW 1.6 km/h 1.6 km/h 34 % 0.0 mm
12:07 10.3 °C -0.6 °C 1019.9 hPa North 6.1 km/h 6.1 km/h 47 % 0.0 mm
12:12 10.6 °C -0.3 °C 1019.9 hPa WNW 3.7 km/h 3.7 km/h 47 % 0.0 mm
12:17 10.8 °C -0.4 °C 1019.9 hPa East 3.7 km/h 3.7 km/h 46 % 0.0 mm
12:22 10.9 °C 0.0 °C 1018.8 hPa NNE 3.7 km/h 3.7 km/h 47 % 0.0 mm
12:27 11.2 °C 0.0 °C 1018.8 hPa NNW 3.7 km/h 3.7 km/h 46 % 0.0 mm
12:32 11.5 °C 0.3 °C 1018.8 hPa ENE 4.2 km/h 4.2 km/h 46 % 0.0 mm
12:37 11.2 °C -0.3 °C 1018.8 hPa ESE 3.7 km/h 3.7 km/h 45 % 0.0 mm
12:47 11.7 °C 0.4 °C 1018.8 hPa NE 5.6 km/h 5.6 km/h 46 % 0.0 mm
12:52 11.7 °C 0.2 °C 1018.8 hPa SSE 4.2 km/h 4.2 km/h 45 % 0.0 mm
12:57 12.0 °C 0.4 °C 1018.8 hPa NW 3.7 km/h 3.7 km/h 45 % 0.0 mm
13:02 12.3 °C 0.7 °C 1018.8 hPa NNW 2.3 km/h   45 % 0.0 mm
13:07 12.2 °C 0.6 °C 1017.8 hPa ENE 4.2 km/h 4.2 km/h 45 % 0.0 mm
13:12 12.3 °C 0.4 °C 1017.8 hPa NE 3.7 km/h 3.7 km/h 44 % 0.0 mm
13:17 12.5 °C 0.6 °C 1017.8 hPa NNE 3.9 km/h 3.9 km/h 44 % 0.0 mm
13:22 12.7 °C 0.7 °C 1017.8 hPa ENE 3.9 km/h 3.9 km/h 44 % 0.0 mm
13:32 13.0 °C 1.0 °C 1017.8 hPa East 3.7 km/h 3.7 km/h 44 % 0.0 mm
13:37 13.2 °C 1.2 °C 1017.8 hPa ENE 3.7 km/h 3.7 km/h 44 % 0.0 mm
13:42 13.0 °C 0.7 °C 1017.8 hPa East 3.9 km/h 3.9 km/h 43 % 0.0 mm
13:47 13.0 °C 0.7 °C 1017.8 hPa East 3.9 km/h 3.9 km/h 43 % 0.0 mm
13:52 13.0 °C 0.7 °C 1017.8 hPa NE 3.9 km/h 4.2 km/h 43 % 0.0 mm
13:57 13.2 °C 0.9 °C 1017.8 hPa ENE 3.7 km/h 3.7 km/h 43 % 0.0 mm
14:02 13.3 °C 0.9 °C 1017.8 hPa NE 3.9 km/h 3.9 km/h 43 % 0.0 mm
14:07 13.4 °C 0.7 °C 1017.8 hPa ENE 3.7 km/h 3.7 km/h 42 % 0.0 mm
14:12 13.3 °C 0.3 °C 1017.8 hPa SE 5.8 km/h 5.8 km/h 41 % 0.0 mm
14:17 13.5 °C 0.5 °C 1017.8 hPa East 5.6 km/h 5.6 km/h 41 % 0.0 mm
14:22 13.5 °C 0.2 °C 1017.8 hPa ENE 5.6 km/h 5.6 km/h 40 % 0.0 mm
14:27 13.5 °C 0.2 °C 1017.8 hPa ESE 3.7 km/h 3.7 km/h 40 % 0.0 mm
14:32 13.7 °C 0.0 °C 1017.8 hPa ESE 5.6 km/h 5.6 km/h 39 % 0.0 mm
14:37 13.8 °C 0.1 °C 1017.8 hPa NNE 1.9 km/h   39 % 0.0 mm
14:42 14.0 °C 0.2 °C 1017.8 hPa NNW 1.9 km/h 1.9 km/h 39 % 0.0 mm
14:47 14.0 °C -0.5 °C 1017.8 hPa ESE 5.6 km/h 5.6 km/h 37 % 0.0 mm
14:52 13.9 °C -0.9 °C 1016.8 hPa ESE 5.6 km/h 5.6 km/h 36 % 0.0 mm
14:57 14.0 °C -0.8 °C 1016.8 hPa NNE 3.7 km/h 3.7 km/h 36 % 0.0 mm
15:02 14.1 °C -0.8 °C 1016.8 hPa NNE 2.6 km/h 2.6 km/h 36 % 0.0 mm
15:07 14.2 °C -0.7 °C 1016.8 hPa East 3.7 km/h 3.7 km/h 36 % 0.0 mm
15:12 14.2 °C -0.7 °C 1016.8 hPa ENE 3.7 km/h 3.7 km/h 36 % 0.0 mm
15:17 14.4 °C -0.5 °C 1016.8 hPa ENE 1.9 km/h 1.9 km/h 36 % 0.0 mm
15:22 14.5 °C -0.4 °C 1016.8 hPa NNE 1.9 km/h   36 % 0.0 mm
15:27 14.4 °C -1.3 °C 1016.8 hPa South 5.6 km/h 5.6 km/h 34 % 0.0 mm
15:32 14.4 °C -1.3 °C 1016.8 hPa ENE 4.2 km/h 4.2 km/h 34 % 0.0 mm
15:37 14.4 °C -1.3 °C 1017.8 hPa East 5.6 km/h 5.6 km/h 34 % 0.0 mm
15:42 14.5 °C -1.2 °C 1017.8 hPa NNE 1.9 km/h 1.9 km/h 34 % 0.0 mm
15:47 14.6 °C -1.1 °C 1017.8 hPa ENE 3.7 km/h   34 % 0.0 mm
15:52 14.5 °C -1.6 °C 1016.8 hPa ENE 1.9 km/h   33 % 0.0 mm
15:57 14.5 °C -1.6 °C 1016.8 hPa ENE 3.7 km/h 3.7 km/h 33 % 0.0 mm
16:02 14.4 °C -1.7 °C 1016.8 hPa East 3.7 km/h 3.7 km/h 33 % 0.0 mm
16:07 14.5 °C -2.0 °C 1016.8 hPa East 1.9 km/h 2.3 km/h 32 % 0.0 mm
16:12 14.5 °C -1.6 °C 1016.8 hPa ENE 3.7 km/h 3.7 km/h 33 % 0.0 mm
16:17 14.5 °C -1.6 °C 1016.8 hPa East 3.7 km/h 3.7 km/h 33 % 0.0 mm
16:22 14.6 °C -1.9 °C 1016.8 hPa South 3.7 km/h 3.7 km/h 32 % 0.0 mm
16:27 14.6 °C -1.9 °C 1016.8 hPa SE 3.7 km/h   32 % 0.0 mm
16:32 14.4 °C -2.1 °C 1016.8 hPa East 5.6 km/h 5.6 km/h 32 % 0.0 mm
16:37 14.4 °C -2.1 °C 1016.8 hPa Calm     32 % 0.0 mm
16:42 14.3 °C -2.2 °C 1016.8 hPa ESE 3.7 km/h 3.7 km/h 32 % 0.0 mm
16:47 14.3 °C -2.2 °C 1016.8 hPa East 3.7 km/h 3.7 km/h 32 % 0.0 mm
16:52 14.1 °C -2.4 °C 1016.8 hPa East 3.7 km/h 3.7 km/h 32 % 0.0 mm
16:57 14.0 °C -2.4 °C 1016.8 hPa ESE 3.7 km/h 3.7 km/h 32 % 0.0 mm
17:02 13.9 °C -2.6 °C 1016.8 hPa ESE 1.9 km/h   32 % 0.0 mm
17:07 13.8 °C -2.2 °C 1016.8 hPa Calm     33 % 0.0 mm
17:12 13.6 °C -2.4 °C 1016.8 hPa Calm     33 % 0.0 mm
17:17 13.4 °C -2.6 °C 1016.8 hPa Calm     33 % 0.0 mm
18:08 11.5 °C -3.8 °C 1017.8 hPa WSW 1.9 km/h 1.9 km/h 34 % 0.0 mm
18:13 11.3 °C -4.0 °C 1017.8 hPa NNE 1.9 km/h 1.9 km/h 34 % 0.0 mm
18:18 11.3 °C -4.0 °C 1017.8 hPa NNE 1.9 km/h   34 % 0.0 mm
18:23 11.1 °C -4.2 °C 1017.8 hPa NNE 3.7 km/h 3.7 km/h 34 % 0.0 mm
18:25 5.0 °C -4.1 °C 1018.8 hPa ESE 1.6 km/h 3.2 km/h 52 % 0.0 mm
18:28 11.0 °C -3.9 °C 1017.8 hPa Calm     35 % 0.0 mm
18:33 10.9 °C -4.0 °C 1017.8 hPa NNE 1.9 km/h 1.9 km/h 35 % 0.0 mm
18:35 4.9 °C -4.2 °C 1018.8 hPa Calm   1.6 km/h 52 % 0.0 mm
18:38 10.7 °C -4.2 °C 1017.8 hPa Calm     35 % 0.0 mm
18:43 10.5 °C -4.3 °C 1017.8 hPa NNE 2.3 km/h   35 % 0.0 mm
18:45 4.7 °C -4.1 °C 1018.8 hPa Calm     53 % 0.0 mm
18:48 10.5 °C -4.3 °C 1017.8 hPa NNE 2.3 km/h 2.3 km/h 35 % 0.0 mm
18:53 10.4 °C -4.1 °C 1017.8 hPa NE 2.3 km/h   36 % 0.0 mm
18:55 4.6 °C -4.2 °C 1018.8 hPa Calm     53 % 0.0 mm
18:58 10.2 °C -4.2 °C 1017.8 hPa NE 1.9 km/h 1.9 km/h 36 % 0.0 mm
19:03 10.0 °C -4.1 °C 1017.8 hPa NNE 1.9 km/h 1.9 km/h 37 % 0.0 mm
19:05 4.7 °C -4.1 °C 1018.8 hPa SW 1.6 km/h 3.2 km/h 53 % 0.0 mm
19:08 9.9 °C -4.1 °C 1017.8 hPa North 1.9 km/h   37 % 0.0 mm
19:13 9.8 °C -4.2 °C 1017.8 hPa Calm     37 % 0.0 mm
19:15 4.7 °C -3.8 °C 1018.8 hPa SW 1.6 km/h 3.2 km/h 54 % 0.0 mm
19:18 9.7 °C -3.9 °C 1016.8 hPa Calm     38 % 0.0 mm
19:19 9.7 °C -3.9 °C 1016.8 hPa Calm     38 % 0.0 mm
19:24 9.7 °C -3.9 °C 1016.8 hPa Calm     38 % 0.0 mm
19:25 4.8 °C -3.7 °C 1018.8 hPa Calm   3.2 km/h 54 % 0.0 mm
19:29 9.6 °C -4.1 °C 1016.8 hPa Calm     38 % 0.0 mm
19:34 9.4 °C -4.2 °C 1016.8 hPa Calm     38 % 0.0 mm
19:35 4.7 °C -3.8 °C 1018.8 hPa Calm     54 % 0.0 mm
19:39 9.2 °C -4.1 °C 1016.8 hPa Calm     39 % 0.0 mm
19:45 4.8 °C -3.7 °C 1018.8 hPa Calm     54 % 0.0 mm
19:49 9.2 °C -3.7 °C 1017.8 hPa ENE 1.9 km/h 1.9 km/h 40 % 0.0 mm
19:54 9.0 °C -3.9 °C 1017.8 hPa Calm     40 % 0.0 mm
19:55 4.8 °C -3.5 °C 1018.8 hPa Calm     55 % 0.0 mm
19:59 8.8 °C -4.1 °C 1017.8 hPa Calm     40 % 0.0 mm
20:04 8.6 °C -3.9 °C 1017.8 hPa Calm     41 % 0.0 mm
20:05 4.6 °C -3.7 °C 1018.8 hPa Calm   1.6 km/h 55 % 0.0 mm
20:09 8.5 °C -4.0 °C 1017.8 hPa Calm     41 % 0.0 mm
20:14 8.5 °C -4.0 °C 1017.8 hPa Calm     41 % 0.0 mm
20:15 4.6 °C -3.7 °C 1018.8 hPa Calm     55 % 0.0 mm
20:19 8.3 °C -3.9 °C 1017.8 hPa Calm     42 % 0.0 mm
20:25 4.5 °C -3.8 °C 1018.8 hPa Calm     55 % 0.0 mm
20:29 7.9 °C -4.2 °C 1017.8 hPa West 1.9 km/h 2.3 km/h 42 % 0.0 mm
20:34 7.8 °C -4.0 °C 1018.8 hPa Calm     43 % 0.0 mm
20:35 4.5 °C -3.8 °C 1018.8 hPa Calm   3.2 km/h 55 % 0.0 mm
20:39 7.8 °C -4.0 °C 1018.8 hPa Calm     43 % 0.0 mm
20:44 7.7 °C -4.1 °C 1018.8 hPa NE 3.7 km/h 3.7 km/h 43 % 0.0 mm
20:45 4.4 °C -3.6 °C 1018.8 hPa Calm   1.6 km/h 56 % 0.0 mm
20:49 7.5 °C -4.3 °C 1017.8 hPa NNW 1.9 km/h 1.9 km/h 43 % 0.0 mm
20:54 7.5 °C -4.3 °C 1017.8 hPa NNW 1.9 km/h   43 % 0.0 mm
20:55 4.6 °C -3.7 °C 1018.8 hPa Calm   3.2 km/h 55 % 0.0 mm
20:59 7.5 °C -4.0 °C 1017.8 hPa Calm     44 % 0.0 mm
21:04 7.6 °C -3.9 °C 1017.8 hPa NE 1.9 km/h 1.9 km/h 44 % 0.0 mm
21:05 4.6 °C -3.4 °C 1018.8 hPa Calm     56 % 0.0 mm
21:09 7.5 °C -4.0 °C 1017.8 hPa Calm     44 % 0.0 mm
21:14 7.3 °C -3.9 °C 1017.8 hPa NE 1.9 km/h 2.3 km/h 45 % 0.0 mm
21:15 4.5 °C -3.6 °C 1018.8 hPa NNW 1.6 km/h 1.6 km/h 56 % 0.0 mm
21:19 7.1 °C -4.1 °C 1018.8 hPa Calm     45 % 0.0 mm
21:24 7.0 °C -4.2 °C 1018.8 hPa Calm     45 % 0.0 mm
21:25 4.4 °C -3.6 °C 1018.8 hPa Calm     56 % 0.0 mm
21:29 6.9 °C -4.2 °C 1018.8 hPa Calm     45 % 0.0 mm
21:34 6.7 °C -4.1 °C 1018.8 hPa Calm     46 % 0.0 mm
21:35 4.4 °C -3.6 °C 1018.8 hPa Calm     56 % 0.0 mm
21:39 6.6 °C -4.2 °C 1018.8 hPa Calm     46 % 0.0 mm
21:44 6.6 °C -4.2 °C 1018.8 hPa NNE 1.9 km/h 1.9 km/h 46 % 0.0 mm
21:45 4.4 °C -3.6 °C 1018.8 hPa NNW 1.6 km/h 3.2 km/h 56 % 0.0 mm
21:54 6.5 °C -4.0 °C 1018.8 hPa SE 2.3 km/h   47 % 0.0 mm
21:55 4.3 °C -3.7 °C 1018.8 hPa Calm   3.2 km/h 56 % 0.0 mm
21:59 6.5 °C -4.0 °C 1018.8 hPa Calm     47 % 0.0 mm
22:04 6.4 °C -4.1 °C 1018.8 hPa SW 3.2 km/h 3.2 km/h 47 % 0.0 mm
22:05 4.1 °C -3.7 °C 1018.8 hPa Calm   3.2 km/h 57 % 0.0 mm
22:09 6.2 °C -4.3 °C 1018.8 hPa SW 2.3 km/h 2.3 km/h 47 % 0.0 mm
22:14 6.0 °C -4.5 °C 1018.8 hPa SW 3.7 km/h 3.7 km/h 47 % 0.0 mm
22:15 4.1 °C -3.7 °C 1018.8 hPa NW 1.6 km/h 3.2 km/h 57 % 0.0 mm
22:19 5.9 °C -4.6 °C 1018.8 hPa WSW 3.7 km/h 3.7 km/h 47 % 0.0 mm
22:24 6.0 °C -4.2 °C 1018.8 hPa WSW 2.6 km/h 2.6 km/h 48 % 0.0 mm
22:25 3.9 °C -3.8 °C 1018.8 hPa Calm   3.2 km/h 57 % 0.0 mm
22:29 6.0 °C -4.2 °C 1018.8 hPa WSW 3.7 km/h 3.7 km/h 48 % 0.0 mm
22:34 6.0 °C -4.2 °C 1018.8 hPa WSW 3.7 km/h 3.7 km/h 48 % 0.0 mm
22:35 3.6 °C -3.9 °C 1018.8 hPa Calm   1.6 km/h 58 % 0.0 mm
22:39 5.9 °C -4.0 °C 1018.8 hPa WSW 2.3 km/h   49 % 0.0 mm
22:44 5.8 °C -4.1 °C 1018.8 hPa WSW 1.9 km/h 1.9 km/h 49 % 0.0 mm
22:45 3.6 °C -4.1 °C 1018.8 hPa Calm   3.2 km/h 57 % 0.0 mm
22:49 5.8 °C -4.1 °C 1018.8 hPa Calm     49 % 0.0 mm
22:54 5.7 °C -3.9 °C 1018.8 hPa Calm     50 % 0.0 mm
22:59 5.6 °C -4.0 °C 1018.8 hPa Calm     50 % 0.0 mm
23:04 5.7 °C -3.9 °C 1018.8 hPa Calm     50 % 0.0 mm
23:05 3.6 °C -3.9 °C 1018.8 hPa Calm   1.6 km/h 58 % 0.0 mm
23:09 5.6 °C -4.0 °C 1018.8 hPa Calm     50 % 0.0 mm
23:14 5.6 °C -4.0 °C 1018.8 hPa Calm     50 % 0.0 mm
23:15 3.6 °C -3.9 °C 1018.8 hPa Calm   1.6 km/h 58 % 0.0 mm
23:19 5.6 °C -4.0 °C 1018.8 hPa Calm     50 % 0.0 mm
23:24 5.6 °C -3.8 °C 1018.8 hPa Calm     51 % 0.0 mm
23:25 3.5 °C -3.8 °C 1018.8 hPa Calm     59 % 0.0 mm
23:29 5.5 °C -3.8 °C 1018.8 hPa Calm     51 % 0.0 mm
23:34 5.7 °C -3.7 °C 1018.8 hPa Calm     51 % 0.0 mm
23:35 3.4 °C -3.9 °C 1018.8 hPa Calm     59 % 0.0 mm
23:39 5.6 °C -3.8 °C 1018.8 hPa WSW 2.3 km/h 2.3 km/h 51 % 0.0 mm
23:44 5.4 °C -3.7 °C 1018.8 hPa ENE 1.9 km/h 1.9 km/h 52 % 0.0 mm
23:45 3.2 °C -4.1 °C 1018.8 hPa Calm     59 % 0.0 mm
23:49 5.4 °C -3.7 °C 1018.8 hPa Calm     52 % 0.0 mm
23:54 5.3 °C -3.8 °C 1018.8 hPa Calm     52 % 0.0 mm
23:55 3.1 °C -4.2 °C 1018.8 hPa NW 1.6 km/h 3.2 km/h 59 % 0.0 mm
23:59 5.3 °C -3.8 °C 1018.8 hPa ENE 3.7 km/h 3.7 km/h 52 % 0.0 mm
Meteo Sesrovires
Elogis d' Weather Underground - 3.75 mb

Guio original per  Jim McMurry - jmcmurry@mwt.net Adaptat per a la plantilla per  Wim van der Kuil - Leuven-Template.eu

Trobareu la nostra informacio del temps tambe a:

Weather Underground

AWEKAS